sensor_id;sensor_type;location;lat;lon;timestamp;pressure;altitude;pressure_sealevel;temperature;humidity
22605;BME280;11469;49.024;8.246;2024-02-04T00:02:03;101628.75;;;7.28;100.00
22605;BME280;11469;49.024;8.246;2024-02-04T00:04:29;101612.22;;;7.18;100.00
22605;BME280;11469;49.024;8.246;2024-02-04T00:06:54;101611.50;;;7.12;100.00
22605;BME280;11469;49.024;8.246;2024-02-04T00:09:20;101615.09;;;7.13;100.00
22605;BME280;11469;49.024;8.246;2024-02-04T00:11:45;101610.03;;;7.15;100.00
22605;BME280;11469;49.024;8.246;2024-02-04T00:14:11;101615.63;;;7.15;100.00
22605;BME280;11469;49.024;8.246;2024-02-04T00:16:37;101616.56;;;7.10;100.00
22605;BME280;11469;49.024;8.246;2024-02-04T00:19:03;101618.84;;;7.08;100.00
22605;BME280;11469;49.024;8.246;2024-02-04T00:21:28;101610.97;;;7.10;100.00
22605;BME280;11469;49.024;8.246;2024-02-04T00:23:53;101609.22;;;7.14;100.00
22605;BME280;11469;49.024;8.246;2024-02-04T00:26:19;101599.50;;;7.12;100.00
22605;BME280;11469;49.024;8.246;2024-02-04T00:28:44;101595.59;;;7.13;100.00
22605;BME280;11469;49.024;8.246;2024-02-04T00:31:10;101597.84;;;7.11;100.00
22605;BME280;11469;49.024;8.246;2024-02-04T00:33:35;101624.00;;;7.15;100.00
22605;BME280;11469;49.024;8.246;2024-02-04T00:36:00;101611.59;;;7.21;100.00
22605;BME280;11469;49.024;8.246;2024-02-04T00:38:26;101597.97;;;7.19;100.00
22605;BME280;11469;49.024;8.246;2024-02-04T00:40:51;101599.09;;;7.18;100.00
22605;BME280;11469;49.024;8.246;2024-02-04T00:43:18;101621.09;;;7.20;100.00
22605;BME280;11469;49.024;8.246;2024-02-04T00:45:43;101623.78;;;7.25;100.00
22605;BME280;11469;49.024;8.246;2024-02-04T00:48:08;101616.34;;;7.20;100.00
22605;BME280;11469;49.024;8.246;2024-02-04T00:50:34;101612.72;;;7.20;100.00
22605;BME280;11469;49.024;8.246;2024-02-04T00:52:59;101624.19;;;7.18;100.00
22605;BME280;11469;49.024;8.246;2024-02-04T00:55:25;101619.75;;;7.17;100.00
22605;BME280;11469;49.024;8.246;2024-02-04T00:57:50;101618.31;;;7.20;100.00
22605;BME280;11469;49.024;8.246;2024-02-04T01:00:16;101608.09;;;7.15;100.00
22605;BME280;11469;49.024;8.246;2024-02-04T01:02:41;101597.97;;;7.19;100.00
22605;BME280;11469;49.024;8.246;2024-02-04T01:05:07;101584.63;;;7.16;100.00
22605;BME280;11469;49.024;8.246;2024-02-04T01:07:33;101590.94;;;7.22;100.00
22605;BME280;11469;49.024;8.246;2024-02-04T01:09:58;101608.28;;;7.19;100.00
22605;BME280;11469;49.024;8.246;2024-02-04T01:12:23;101612.00;;;7.14;100.00
22605;BME280;11469;49.024;8.246;2024-02-04T01:14:49;101620.38;;;7.14;100.00
22605;BME280;11469;49.024;8.246;2024-02-04T01:17:14;101629.03;;;7.13;100.00
22605;BME280;11469;49.024;8.246;2024-02-04T01:19:39;101629.25;;;7.16;100.00
22605;BME280;11469;49.024;8.246;2024-02-04T01:22:05;101620.38;;;7.14;100.00
22605;BME280;11469;49.024;8.246;2024-02-04T01:24:31;101614.59;;;7.11;100.00
22605;BME280;11469;49.024;8.246;2024-02-04T01:26:57;101610.34;;;7.13;100.00
22605;BME280;11469;49.024;8.246;2024-02-04T01:29:22;101600.75;;;7.19;100.00
22605;BME280;11469;49.024;8.246;2024-02-04T01:31:47;101601.47;;;7.11;100.00
22605;BME280;11469;49.024;8.246;2024-02-04T01:34:13;101605.91;;;7.12;100.00
22605;BME280;11469;49.024;8.246;2024-02-04T01:36:38;101612.84;;;7.15;100.00
22605;BME280;11469;49.024;8.246;2024-02-04T01:39:03;101622.34;;;7.14;100.00
22605;BME280;11469;49.024;8.246;2024-02-04T01:41:30;101621.28;;;7.10;100.00
22605;BME280;11469;49.024;8.246;2024-02-04T01:43:55;101622.47;;;7.09;100.00
22605;BME280;11469;49.024;8.246;2024-02-04T01:46:21;101632.16;;;7.11;100.00
22605;BME280;11469;49.024;8.246;2024-02-04T01:48:47;101634.94;;;7.11;100.00
22605;BME280;11469;49.024;8.246;2024-02-04T01:51:14;101638.38;;;7.08;100.00
22605;BME280;11469;49.024;8.246;2024-02-04T01:53:44;101647.88;;;7.07;100.00
22605;BME280;11469;49.024;8.246;2024-02-04T01:56:10;101635.88;;;7.07;100.00
22605;BME280;11469;49.024;8.246;2024-02-04T01:58:36;101640.31;;;7.08;100.00
22605;BME280;11469;49.024;8.246;2024-02-04T02:01:02;101637.63;;;7.03;100.00
22605;BME280;11469;49.024;8.246;2024-02-04T02:03:28;101634.53;;;7.04;100.00
22605;BME280;11469;49.024;8.246;2024-02-04T02:05:56;101633.63;;;7.09;100.00
22605;BME280;11469;49.024;8.246;2024-02-04T02:08:21;101634.75;;;7.08;100.00
22605;BME280;11469;49.024;8.246;2024-02-04T02:10:48;101630.63;;;7.05;100.00
22605;BME280;11469;49.024;8.246;2024-02-04T02:13:20;101627.09;;;6.99;100.00
22605;BME280;11469;49.024;8.246;2024-02-04T02:15:52;101620.38;;;7.01;100.00
22605;BME280;11469;49.024;8.246;2024-02-04T02:18:31;101617.09;;;6.98;100.00
22605;BME280;11469;49.024;8.246;2024-02-04T02:21:24;101614.91;;;6.95;100.00
22605;BME280;11469;49.024;8.246;2024-02-04T02:24:16;101611.81;;;6.97;100.00
22605;BME280;11469;49.024;8.246;2024-02-04T02:26:44;101613.78;;;6.96;100.00
22605;BME280;11469;49.024;8.246;2024-02-04T02:29:09;101607.47;;;6.91;100.00
22605;BME280;11469;49.024;8.246;2024-02-04T02:31:36;101596.53;;;6.94;100.00
22605;BME280;11469;49.024;8.246;2024-02-04T02:34:03;101589.00;;;6.95;100.00
22605;BME280;11469;49.024;8.246;2024-02-04T02:36:33;101591.25;;;6.93;100.00
22605;BME280;11469;49.024;8.246;2024-02-04T02:39:07;101586.72;;;6.97;100.00
22605;BME280;11469;49.024;8.246;2024-02-04T02:41:35;101595.91;;;6.97;100.00
22605;BME280;11469;49.024;8.246;2024-02-04T02:44:04;101593.66;;;6.99;100.00
22605;BME280;11469;49.024;8.246;2024-02-04T02:46:30;101584.03;;;7.06;100.00
22605;BME280;11469;49.024;8.246;2024-02-04T02:48:56;101577.44;;;7.02;100.00
22605;BME280;11469;49.024;8.246;2024-02-04T02:51:22;101576.72;;;6.96;100.00
22605;BME280;11469;49.024;8.246;2024-02-04T02:53:47;101575.06;;;6.95;100.00
22605;BME280;11469;49.024;8.246;2024-02-04T02:56:12;101582.59;;;6.94;100.00
22605;BME280;11469;49.024;8.246;2024-02-04T02:58:38;101574.22;;;6.94;100.00
22605;BME280;11469;49.024;8.246;2024-02-04T03:01:03;101569.69;;;6.98;100.00
22605;BME280;11469;49.024;8.246;2024-02-04T03:03:29;101575.88;;;6.95;100.00
22605;BME280;11469;49.024;8.246;2024-02-04T03:05:54;101557.41;;;6.99;100.00
22605;BME280;11469;49.024;8.246;2024-02-04T03:08:19;101556.38;;;6.95;100.00
22605;BME280;11469;49.024;8.246;2024-02-04T03:10:45;101555.25;;;6.96;100.00
22605;BME280;11469;49.024;8.246;2024-02-04T03:13:10;101549.66;;;6.96;100.00
22605;BME280;11469;49.024;8.246;2024-02-04T03:15:35;101551.09;;;6.94;100.00
22605;BME280;11469;49.024;8.246;2024-02-04T03:18:01;101551.41;;;6.92;100.00
22605;BME280;11469;49.024;8.246;2024-02-04T03:20:26;101543.06;;;6.92;100.00
22605;BME280;11469;49.024;8.246;2024-02-04T03:22:51;101532.84;;;6.88;100.00
22605;BME280;11469;49.024;8.246;2024-02-04T03:25:17;101522.00;;;6.86;100.00
22605;BME280;11469;49.024;8.246;2024-02-04T03:27:42;101520.56;;;6.89;100.00
22605;BME280;11469;49.024;8.246;2024-02-04T03:30:08;101521.38;;;6.89;100.00
22605;BME280;11469;49.024;8.246;2024-02-04T03:32:33;101514.97;;;6.89;100.00
22605;BME280;11469;49.024;8.246;2024-02-04T03:35:02;101507.13;;;6.91;100.00
22605;BME280;11469;49.024;8.246;2024-02-04T03:37:27;101507.75;;;6.88;100.00
22605;BME280;11469;49.024;8.246;2024-02-04T03:39:53;101509.41;;;6.89;100.00
22605;BME280;11469;49.024;8.246;2024-02-04T03:42:18;101516.72;;;6.85;100.00
22605;BME280;11469;49.024;8.246;2024-02-04T03:44:46;101506.19;;;6.82;100.00
22605;BME280;11469;49.024;8.246;2024-02-04T03:47:12;101523.84;;;6.77;100.00
22605;BME280;11469;49.024;8.246;2024-02-04T03:49:37;101529.13;;;6.79;100.00
22605;BME280;11469;49.024;8.246;2024-02-04T03:52:03;101534.47;;;6.75;100.00
22605;BME280;11469;49.024;8.246;2024-02-04T03:54:29;101534.38;;;6.80;100.00
22605;BME280;11469;49.024;8.246;2024-02-04T03:56:54;101537.69;;;6.82;100.00
22605;BME280;11469;49.024;8.246;2024-02-04T03:59:19;101541.50;;;6.86;100.00
22605;BME280;11469;49.024;8.246;2024-02-04T04:01:48;101532.94;;;6.83;100.00
22605;BME280;11469;49.024;8.246;2024-02-04T04:04:15;101523.03;;;6.90;100.00
22605;BME280;11469;49.024;8.246;2024-02-04T04:06:40;101530.66;;;6.85;100.00
22605;BME280;11469;49.024;8.246;2024-02-04T04:09:07;101531.81;;;6.84;100.00
22605;BME280;11469;49.024;8.246;2024-02-04T04:11:32;101530.03;;;6.88;100.00
22605;BME280;11469;49.024;8.246;2024-02-04T04:13:58;101542.63;;;6.85;100.00
22605;BME280;11469;49.024;8.246;2024-02-04T04:16:24;101535.09;;;6.86;100.00
22605;BME280;11469;49.024;8.246;2024-02-04T04:18:49;101544.09;;;6.83;100.00
22605;BME280;11469;49.024;8.246;2024-02-04T04:21:15;101558.22;;;6.86;100.00
22605;BME280;11469;49.024;8.246;2024-02-04T04:23:41;101563.81;;;6.86;100.00
22605;BME280;11469;49.024;8.246;2024-02-04T04:26:06;101571.63;;;6.84;100.00
22605;BME280;11469;49.024;8.246;2024-02-04T04:28:32;101568.84;;;6.84;100.00
22605;BME280;11469;49.024;8.246;2024-02-04T04:30:57;101573.81;;;6.87;100.00
22605;BME280;11469;49.024;8.246;2024-02-04T04:33:22;101552.97;;;6.85;100.00
22605;BME280;11469;49.024;8.246;2024-02-04T04:35:48;101577.22;;;6.84;100.00
22605;BME280;11469;49.024;8.246;2024-02-04T04:38:13;101572.56;;;6.80;100.00
22605;BME280;11469;49.024;8.246;2024-02-04T04:40:38;101568.75;;;6.76;100.00
22605;BME280;11469;49.024;8.246;2024-02-04T04:43:06;101582.66;;;6.76;100.00
22605;BME280;11469;49.024;8.246;2024-02-04T04:45:31;101589.81;;;6.82;100.00
22605;BME280;11469;49.024;8.246;2024-02-04T04:47:57;101582.88;;;6.79;100.00
22605;BME280;11469;49.024;8.246;2024-02-04T04:50:22;101573.69;;;6.79;100.00
22605;BME280;11469;49.024;8.246;2024-02-04T04:52:48;101574.53;;;6.79;100.00
22605;BME280;11469;49.024;8.246;2024-02-04T04:55:14;101571.22;;;6.77;100.00
22605;BME280;11469;49.024;8.246;2024-02-04T04:57:39;101586.50;;;6.80;100.00
22605;BME280;11469;49.024;8.246;2024-02-04T05:00:05;101580.53;;;6.86;100.00
22605;BME280;11469;49.024;8.246;2024-02-04T05:02:37;101581.66;;;6.85;100.00
22605;BME280;11469;49.024;8.246;2024-02-04T05:05:03;101596.81;;;6.79;100.00
22605;BME280;11469;49.024;8.246;2024-02-04T05:07:29;101589.91;;;6.77;100.00
22605;BME280;11469;49.024;8.246;2024-02-04T05:09:54;101601.34;;;6.75;100.00
22605;BME280;11469;49.024;8.246;2024-02-04T05:12:19;101595.78;;;6.75;100.00
22605;BME280;11469;49.024;8.246;2024-02-04T05:14:45;101607.44;;;6.77;100.00
22605;BME280;11469;49.024;8.246;2024-02-04T05:17:10;101611.06;;;6.78;100.00
22605;BME280;11469;49.024;8.246;2024-02-04T05:19:36;101610.22;;;6.77;100.00
22605;BME280;11469;49.024;8.246;2024-02-04T05:22:02;101615.72;;;6.82;100.00
22605;BME280;11469;49.024;8.246;2024-02-04T05:24:28;101622.94;;;6.83;100.00
22605;BME280;11469;49.024;8.246;2024-02-04T05:26:53;101602.69;;;6.78;100.00
22605;BME280;11469;49.024;8.246;2024-02-04T05:29:19;101594.03;;;6.79;100.00
22605;BME280;11469;49.024;8.246;2024-02-04T05:31:45;101599.69;;;6.74;100.00
22605;BME280;11469;49.024;8.246;2024-02-04T05:34:10;101593.59;;;6.72;100.00
22605;BME280;11469;49.024;8.246;2024-02-04T05:36:36;101593.59;;;6.72;100.00
22605;BME280;11469;49.024;8.246;2024-02-04T05:39:11;101606.41;;;6.73;100.00
22605;BME280;11469;49.024;8.246;2024-02-04T05:41:38;101605.69;;;6.81;100.00
22605;BME280;11469;49.024;8.246;2024-02-04T05:44:04;101597.44;;;6.76;100.00
22605;BME280;11469;49.024;8.246;2024-02-04T05:46:29;101594.03;;;6.79;100.00
22605;BME280;11469;49.024;8.246;2024-02-04T05:48:54;101593.59;;;6.72;100.00
22605;BME280;11469;49.024;8.246;2024-02-04T05:51:20;101586.38;;;6.71;100.00
22605;BME280;11469;49.024;8.246;2024-02-04T05:53:45;101592.88;;;6.66;100.00
22605;BME280;11469;49.024;8.246;2024-02-04T05:56:11;101592.66;;;6.63;100.00
22605;BME280;11469;49.024;8.246;2024-02-04T05:58:36;101590.50;;;6.60;100.00
22605;BME280;11469;49.024;8.246;2024-02-04T06:01:02;101596.09;;;6.60;100.00
22605;BME280;11469;49.024;8.246;2024-02-04T06:03:28;101598.03;;;6.59;100.00
22605;BME280;11469;49.024;8.246;2024-02-04T06:05:53;101600.38;;;6.52;100.00
22605;BME280;11469;49.024;8.246;2024-02-04T06:08:18;101592.03;;;6.52;100.00
22605;BME280;11469;49.024;8.246;2024-02-04T06:10:44;101588.13;;;6.53;100.00
22605;BME280;11469;49.024;8.246;2024-02-04T06:13:09;101597.31;;;6.54;100.00
22605;BME280;11469;49.024;8.246;2024-02-04T06:15:34;101596.16;;;6.55;100.00
22605;BME280;11469;49.024;8.246;2024-02-04T06:18:01;101602.78;;;6.59;100.00
22605;BME280;11469;49.024;8.246;2024-02-04T06:20:26;101615.28;;;6.61;100.00
22605;BME280;11469;49.024;8.246;2024-02-04T06:22:52;101612.28;;;6.58;100.00
22605;BME280;11469;49.024;8.246;2024-02-04T06:25:17;101612.88;;;6.55;100.00
22605;BME280;11469;49.024;8.246;2024-02-04T06:27:43;101605.34;;;6.55;100.00
22605;BME280;11469;49.024;8.246;2024-02-04T06:30:08;101602.78;;;6.59;100.00
22605;BME280;11469;49.024;8.246;2024-02-04T06:32:34;101603.09;;;6.57;100.00
22605;BME280;11469;49.024;8.246;2024-02-04T06:34:59;101611.44;;;6.57;100.00
22605;BME280;11469;49.024;8.246;2024-02-04T06:37:24;101598.03;;;6.59;100.00
22605;BME280;11469;49.024;8.246;2024-02-04T06:39:52;101598.03;;;6.59;100.00
22605;BME280;11469;49.024;8.246;2024-02-04T06:42:17;101594.94;;;6.61;100.00
22605;BME280;11469;49.024;8.246;2024-02-04T06:44:46;101589.88;;;6.63;100.00
22605;BME280;11469;49.024;8.246;2024-02-04T06:47:12;101594.94;;;6.61;100.00
22605;BME280;11469;49.024;8.246;2024-02-04T06:49:40;101594.00;;;6.65;100.00
22605;BME280;11469;49.024;8.246;2024-02-04T06:52:08;101596.09;;;6.60;100.00
22605;BME280;11469;49.024;8.246;2024-02-04T06:54:33;101592.47;;;6.59;100.00
22605;BME280;11469;49.024;8.246;2024-02-04T06:56:59;101590.38;;;6.65;100.00
22605;BME280;11469;49.024;8.246;2024-02-04T06:59:24;101585.66;;;6.65;100.00
22605;BME280;11469;49.024;8.246;2024-02-04T07:01:50;101577.72;;;6.73;100.00
22605;BME280;11469;49.024;8.246;2024-02-04T07:04:15;101576.66;;;6.69;100.00
22605;BME280;11469;49.024;8.246;2024-02-04T07:06:40;101573.16;;;6.63;100.00
22605;BME280;11469;49.024;8.246;2024-02-04T07:09:06;101569.88;;;6.61;100.00
22605;BME280;11469;49.024;8.246;2024-02-04T07:11:32;101572.31;;;6.62;100.00
22605;BME280;11469;49.024;8.246;2024-02-04T07:13:58;101567.78;;;6.66;100.00
22605;BME280;11469;49.024;8.246;2024-02-04T07:16:26;101570.88;;;6.65;100.00
22605;BME280;11469;49.024;8.246;2024-02-04T07:18:52;101581.03;;;6.61;100.00
22605;BME280;11469;49.024;8.246;2024-02-04T07:21:17;101583.47;;;6.62;100.00
22605;BME280;11469;49.024;8.246;2024-02-04T07:23:43;101589.47;;;6.70;100.00
22605;BME280;11469;49.024;8.246;2024-02-04T07:26:08;101575.84;;;6.68;100.00
22605;BME280;11469;49.024;8.246;2024-02-04T07:28:34;101580.06;;;6.65;100.00
22605;BME280;11469;49.024;8.246;2024-02-04T07:31:00;101581.00;;;6.75;100.00
22605;BME280;11469;49.024;8.246;2024-02-04T07:33:25;101578.53;;;6.73;100.00
22605;BME280;11469;49.024;8.246;2024-02-04T07:35:50;101574.41;;;6.71;100.00
22605;BME280;11469;49.024;8.246;2024-02-04T07:38:16;101584.94;;;6.74;100.00
22605;BME280;11469;49.024;8.246;2024-02-04T07:40:41;101593.19;;;6.79;100.00
22605;BME280;11469;49.024;8.246;2024-02-04T07:43:07;101588.47;;;6.79;100.00
22605;BME280;11469;49.024;8.246;2024-02-04T07:45:34;101587.31;;;6.80;100.00
22605;BME280;11469;49.024;8.246;2024-02-04T07:47:59;101585.06;;;6.82;100.00
22605;BME280;11469;49.024;8.246;2024-02-04T07:50:25;101586.72;;;6.83;100.00
22605;BME280;11469;49.024;8.246;2024-02-04T07:52:51;101589.41;;;6.88;100.00
22605;BME280;11469;49.024;8.246;2024-02-04T07:55:16;101594.88;;;6.93;100.00
22605;BME280;11469;49.024;8.246;2024-02-04T07:57:42;101596.53;;;6.94;100.00
22605;BME280;11469;49.024;8.246;2024-02-04T08:00:07;101600.97;;;6.95;100.00
22605;BME280;11469;49.024;8.246;2024-02-04T08:02:36;101595.09;;;6.97;100.00
22605;BME280;11469;49.024;8.246;2024-02-04T08:05:02;101592.00;;;6.98;100.00
22605;BME280;11469;49.024;8.246;2024-02-04T08:07:27;101599.44;;;7.03;100.00
22605;BME280;11469;49.024;8.246;2024-02-04T08:09:53;101598.31;;;7.04;100.00
22605;BME280;11469;49.024;8.246;2024-02-04T08:12:18;101594.25;;;7.10;100.00
22605;BME280;11469;49.024;8.246;2024-02-04T08:14:43;101600.66;;;7.11;100.00
22605;BME280;11469;49.024;8.246;2024-02-04T08:17:09;101594.75;;;7.12;100.00
22605;BME280;11469;49.024;8.246;2024-02-04T08:19:34;101577.22;;;7.12;100.00
22605;BME280;11469;49.024;8.246;2024-02-04T08:22:00;101575.75;;;7.14;100.00
22605;BME280;11469;49.024;8.246;2024-02-04T08:24:26;101581.66;;;7.13;100.00
22605;BME280;11469;49.024;8.246;2024-02-04T08:26:51;101586.59;;;7.16;100.00
22605;BME280;11469;49.024;8.246;2024-02-04T08:29:16;101587.13;;;7.18;100.00
22605;BME280;11469;49.024;8.246;2024-02-04T08:31:42;101599.50;;;7.25;100.00
22605;BME280;11469;49.024;8.246;2024-02-04T08:34:07;101598.78;;;7.20;100.00
22605;BME280;11469;49.024;8.246;2024-02-04T08:36:32;101579.16;;;7.25;100.00
22605;BME280;11469;49.024;8.246;2024-02-04T08:38:58;101577.00;;;7.22;100.00
22605;BME280;11469;49.024;8.246;2024-02-04T08:41:23;101576.28;;;7.16;100.00
22605;BME280;11469;49.024;8.246;2024-02-04T08:43:49;101580.94;;;7.21;100.00
22605;BME280;11469;49.024;8.246;2024-02-04T08:46:14;101575.97;;;7.18;100.00
22605;BME280;11469;49.024;8.246;2024-02-04T08:48:41;101590.31;;;7.25;100.00
22605;BME280;11469;49.024;8.246;2024-02-04T08:51:13;101598.59;;;7.30;100.00
22605;BME280;11469;49.024;8.246;2024-02-04T08:53:41;101601.28;;;7.35;100.00
22605;BME280;11469;49.024;8.246;2024-02-04T08:56:07;101600.03;;;7.41;100.00
22605;BME280;11469;49.024;8.246;2024-02-04T08:58:34;101594.44;;;7.41;100.00
22605;BME280;11469;49.024;8.246;2024-02-04T09:00:59;101594.66;;;7.45;100.00
22605;BME280;11469;49.024;8.246;2024-02-04T09:03:25;101618.84;;;7.36;100.00
22605;BME280;11469;49.024;8.246;2024-02-04T09:05:50;101606.44;;;7.42;100.00
22605;BME280;11469;49.024;8.246;2024-02-04T09:08:15;101605.00;;;7.44;100.00
22605;BME280;11469;49.024;8.246;2024-02-04T09:10:41;101603.22;;;7.48;100.00
22605;BME280;11469;49.024;8.246;2024-02-04T09:13:06;101609.84;;;7.52;100.00
22605;BME280;11469;49.024;8.246;2024-02-04T09:15:32;101617.59;;;7.55;100.00
22605;BME280;11469;49.024;8.246;2024-02-04T09:17:57;101617.44;;;7.60;100.00
22605;BME280;11469;49.024;8.246;2024-02-04T09:20:22;101617.91;;;7.54;100.00
22605;BME280;11469;49.024;8.246;2024-02-04T09:22:48;101608.69;;;7.53;100.00
22605;BME280;11469;49.024;8.246;2024-02-04T09:25:13;101619.72;;;7.58;100.00
22605;BME280;11469;49.024;8.246;2024-02-04T09:27:39;101615.09;;;7.54;100.00
22605;BME280;11469;49.024;8.246;2024-02-04T09:30:05;101606.09;;;7.57;100.00
22605;BME280;11469;49.024;8.246;2024-02-04T09:32:31;101597.91;;;7.60;100.00
22605;BME280;11469;49.024;8.246;2024-02-04T09:34:57;101594.28;;;7.60;100.00
22605;BME280;11469;49.024;8.246;2024-02-04T09:37:22;101587.56;;;7.61;100.00
22605;BME280;11469;49.024;8.246;2024-02-04T09:39:48;101578.66;;;7.73;100.00
22605;BME280;11469;49.024;8.246;2024-02-04T09:42:19;101573.91;;;7.73;100.00
22605;BME280;11469;49.024;8.246;2024-02-04T09:44:45;101594.78;;;7.76;100.00
22605;BME280;11469;49.024;8.246;2024-02-04T09:47:12;101595.19;;;7.83;100.00
22605;BME280;11469;49.024;8.246;2024-02-04T09:49:39;101596.22;;;7.87;100.00
22605;BME280;11469;49.024;8.246;2024-02-04T09:52:07;101592.91;;;7.85;100.00
22605;BME280;11469;49.024;8.246;2024-02-04T09:54:39;101591.34;;;7.92;100.00
22605;BME280;11469;49.024;8.246;2024-02-04T09:57:06;101597.94;;;7.96;100.00
22605;BME280;11469;49.024;8.246;2024-02-04T09:59:33;101595.03;;;8.02;100.00
22605;BME280;11469;49.024;8.246;2024-02-04T10:01:58;101591.25;;;8.06;100.00
22605;BME280;11469;49.024;8.246;2024-02-04T10:04:24;101595.28;;;8.14;100.00
22605;BME280;11469;49.024;8.246;2024-02-04T10:06:49;101603.22;;;8.20;100.00
22605;BME280;11469;49.024;8.246;2024-02-04T10:09:15;101608.03;;;8.28;100.00
22605;BME280;11469;49.024;8.246;2024-02-04T10:11:41;101604.59;;;8.31;100.00
22605;BME280;11469;49.024;8.246;2024-02-04T10:14:06;101607.94;;;8.34;100.00
22605;BME280;11469;49.024;8.246;2024-02-04T10:16:35;101599.00;;;8.45;100.00
22605;BME280;11469;49.024;8.246;2024-02-04T10:19:00;101594.56;;;8.53;100.00
22605;BME280;11469;49.024;8.246;2024-02-04T10:21:26;101587.03;;;8.53;100.00
22605;BME280;11469;49.024;8.246;2024-02-04T10:23:51;101585.75;;;8.59;100.00
22605;BME280;11469;49.024;8.246;2024-02-04T10:26:17;101585.63;;;8.64;100.00
22605;BME280;11469;49.024;8.246;2024-02-04T10:28:45;101570.88;;;8.73;100.00
22605;BME280;11469;49.024;8.246;2024-02-04T10:31:12;101577.47;;;8.77;100.00
22605;BME280;11469;49.024;8.246;2024-02-04T10:33:37;101582.78;;;8.87;100.00
22605;BME280;11469;49.024;8.246;2024-02-04T10:36:03;101583.78;;;8.99;100.00
22605;BME280;11469;49.024;8.246;2024-02-04T10:38:30;101569.53;;;9.10;100.00
22605;BME280;11469;49.024;8.246;2024-02-04T10:40:59;101572.31;;;9.10;100.00
22605;BME280;11469;49.024;8.246;2024-02-04T10:43:29;101568.38;;;9.11;100.00
22605;BME280;11469;49.024;8.246;2024-02-04T10:45:56;101567.22;;;9.12;100.00
22605;BME280;11469;49.024;8.246;2024-02-04T10:48:29;101555.88;;;9.08;100.00
22605;BME280;11469;49.024;8.246;2024-02-04T10:50:57;101560.00;;;9.11;100.00
22605;BME280;11469;49.024;8.246;2024-02-04T10:53:24;101570.84;;;9.12;100.00
22605;BME280;11469;49.024;8.246;2024-02-04T10:55:51;101573.69;;;9.21;100.00
22605;BME280;11469;49.024;8.246;2024-02-04T10:58:22;101573.50;;;9.17;100.00
22605;BME280;11469;49.024;8.246;2024-02-04T11:00:48;101573.69;;;9.21;100.00
22605;BME280;11469;49.024;8.246;2024-02-04T11:03:15;101570.38;;;9.19;100.00
22605;BME280;11469;49.024;8.246;2024-02-04T11:05:42;101563.00;;;9.23;100.00
22605;BME280;11469;49.024;8.246;2024-02-04T11:08:09;101573.06;;;9.32;100.00
22605;BME280;11469;49.024;8.246;2024-02-04T11:10:38;101573.56;;;9.35;100.00
22605;BME280;11469;49.024;8.246;2024-02-04T11:13:05;101570.13;;;9.38;100.00
22605;BME280;11469;49.024;8.246;2024-02-04T11:15:36;101550.19;;;9.48;100.00
22605;BME280;11469;49.024;8.246;2024-02-04T11:21:14;101548.56;;;9.55;100.00
22605;BME280;11469;49.024;8.246;2024-02-04T11:24:03;101542.31;;;9.67;100.00
22605;BME280;11469;49.024;8.246;2024-02-04T11:26:34;101538.06;;;9.78;100.00
22605;BME280;11469;49.024;8.246;2024-02-04T11:29:00;101537.06;;;9.83;100.00
22605;BME280;11469;49.024;8.246;2024-02-04T11:31:28;101548.94;;;9.88;100.00
22605;BME280;11469;49.024;8.246;2024-02-04T11:33:56;101541.69;;;9.87;100.00
22605;BME280;11469;49.024;8.246;2024-02-04T11:36:24;101536.38;;;9.94;100.00
22605;BME280;11469;49.024;8.246;2024-02-04T11:38:51;101529.97;;;9.94;100.00
22605;BME280;11469;49.024;8.246;2024-02-04T11:41:23;101533.91;;;10.02;100.00
22605;BME280;11469;49.024;8.246;2024-02-04T11:43:56;101537.88;;;10.09;100.00
22605;BME280;11469;49.024;8.246;2024-02-04T11:46:21;101529.28;;;10.14;100.00
22605;BME280;11469;49.024;8.246;2024-02-04T11:48:53;101525.50;;;10.27;100.00
22605;BME280;11469;49.024;8.246;2024-02-04T11:51:22;101514.47;;;10.22;100.00
22605;BME280;11469;49.024;8.246;2024-02-04T11:53:53;101505.06;;;10.18;100.00
22605;BME280;11469;49.024;8.246;2024-02-04T11:56:18;101503.75;;;10.07;100.00
22605;BME280;11469;49.024;8.246;2024-02-04T11:58:44;101509.53;;;10.11;100.00
22605;BME280;11469;49.024;8.246;2024-02-04T12:01:10;101499.97;;;10.03;100.00
22605;BME280;11469;49.024;8.246;2024-02-04T12:03:36;101495.00;;;10.17;100.00
22605;BME280;11469;49.024;8.246;2024-02-04T12:06:03;101493.03;;;10.18;100.00
22605;BME280;11469;49.024;8.246;2024-02-04T12:08:33;101476.41;;;10.13;100.00
22605;BME280;11469;49.024;8.246;2024-02-04T12:10:59;101485.97;;;10.03;100.00
22605;BME280;11469;49.024;8.246;2024-02-04T12:13:28;101497.81;;;10.09;100.00
22605;BME280;11469;49.024;8.246;2024-02-04T12:15:53;101479.03;;;10.09;100.00
22605;BME280;11469;49.024;8.246;2024-02-04T12:18:19;101474.78;;;9.94;100.00
22605;BME280;11469;49.024;8.246;2024-02-04T12:20:48;101477.06;;;10.10;100.00
22605;BME280;11469;49.024;8.246;2024-02-04T12:23:17;101467.50;;;10.11;100.00
22605;BME280;11469;49.024;8.246;2024-02-04T12:25:43;101466.69;;;10.02;100.00
22605;BME280;11469;49.024;8.246;2024-02-04T12:28:09;101461.41;;;10.00;100.00
22605;BME280;11469;49.024;8.246;2024-02-04T12:30:34;101462.91;;;9.97;100.00
22605;BME280;11469;49.024;8.246;2024-02-04T12:33:04;101474.75;;;10.03;100.00
22605;BME280;11469;49.024;8.246;2024-02-04T12:35:30;101471.28;;;10.06;100.00
22605;BME280;11469;49.024;8.246;2024-02-04T12:37:57;101463.88;;;10.10;100.00
22605;BME280;11469;49.024;8.246;2024-02-04T12:40:29;101459.41;;;10.18;100.00
22605;BME280;11469;49.024;8.246;2024-02-04T12:43:01;101459.13;;;10.19;100.00
22605;BME280;11469;49.024;8.246;2024-02-04T12:45:28;101464.88;;;10.23;100.00
22605;BME280;11469;49.024;8.246;2024-02-04T12:47:56;101457.41;;;10.36;100.00
22605;BME280;11469;49.024;8.246;2024-02-04T12:50:23;101460.31;;;10.48;100.00